Time;durP1;ratioP1;P1;durP2;ratioP2;P2;SDS_P1;SDS_P2;PMS_P1;PMS_P2;Temp;Humidity;BMP_temperature;BMP_pressure;BME280_temperature;BME280_humidity;BME280_pressure;Samples;Min_cycle;Max_cycle;Signal;HPM_P1;HPM_P2
2022/12/21 00:02:39;;;;;;;34.50;18.97;;;;;;;;;;5013742;28;20632;-77
2022/12/21 00:05:43;;;;;;;38.13;19.30;;;;;;;;;;5002936;28;20630;-77
2022/12/21 00:08:49;;;;;;;35.07;19.07;;;;;;;;;;5003228;28;21143;-77
2022/12/21 00:11:54;;;;;;;38.00;19.40;;;;;;;;;;4992503;28;20623;-77
2022/12/21 00:14:58;;;;;;;36.57;20.50;;;;;;;;;;4992314;28;20634;-78
2022/12/21 00:18:02;;;;;;;32.87;18.87;;;;;;;;;;5016037;28;20630;-77
2022/12/21 00:21:22;;;;;;;34.20;19.80;;;;;;;;;;4992953;28;20633;-78
2022/12/21 00:24:27;;;;;;;39.43;20.03;;;;;;;;;;5016043;28;20609;-78
2022/12/21 00:27:31;;;;;;;38.13;19.83;;;;;;;;;;5004305;28;20560;-78
2022/12/21 00:30:35;;;;;;;37.27;20.07;;;;;;;;;;4993427;28;20611;-78
2022/12/21 00:33:40;;;;;;;36.67;19.20;;;;;;;;;;5016257;28;20558;-78
2022/12/21 00:36:45;;;;;;;40.43;20.20;;;;;;;;;;4993690;28;20568;-77
2022/12/21 00:39:50;;;;;;;35.40;18.53;;;;;;;;;;5005117;28;20611;-77
2022/12/21 00:42:54;;;;;;;36.37;18.87;;;;;;;;;;5015877;28;21198;-78
2022/12/21 00:46:01;;;;;;;36.10;19.90;;;;;;;;;;4994205;28;20616;-78
2022/12/21 00:49:06;;;;;;;36.60;18.47;;;;;;;;;;5007529;28;20615;-78
2022/12/21 00:52:10;;;;;;;37.17;20.10;;;;;;;;;;5007217;28;20615;-78
2022/12/21 00:55:14;;;;;;;38.40;19.30;;;;;;;;;;4996518;28;21114;-78
2022/12/21 00:58:18;;;;;;;34.80;18.07;;;;;;;;;;4996457;28;20564;-78
2022/12/21 01:01:26;;;;;;;32.13;17.77;;;;;;;;;;5018342;28;20619;-79
2022/12/21 01:04:30;;;;;;;38.90;19.63;;;;;;;;;;5008541;28;20548;-78
2022/12/21 01:07:34;;;;;;;35.30;19.97;;;;;;;;;;5021352;28;20563;-78
2022/12/21 01:10:39;;;;;;;38.27;20.30;;;;;;;;;;5009406;28;20607;-78
2022/12/21 01:13:44;;;;;;;36.30;19.47;;;;;;;;;;4998358;28;20565;-79
2022/12/21 01:16:48;;;;;;;34.40;19.40;;;;;;;;;;4998387;28;20560;-78
2022/12/21 01:19:53;;;;;;;32.20;17.23;;;;;;;;;;4998665;28;20550;-78
2022/12/21 01:22:57;;;;;;;34.83;18.23;;;;;;;;;;5008332;28;20548;-78
2022/12/21 01:26:01;;;;;;;32.33;17.90;;;;;;;;;;5008350;28;20551;-79
2022/12/21 01:29:05;;;;;;;34.00;18.27;;;;;;;;;;4996466;28;20563;-79
2022/12/21 01:32:10;;;;;;;35.73;19.27;;;;;;;;;;4996651;28;20676;-79
2022/12/21 01:35:15;;;;;;;39.87;20.43;;;;;;;;;;5007400;28;20541;-79
2022/12/21 01:38:19;;;;;;;32.97;18.10;;;;;;;;;;5007470;28;20552;-79
2022/12/21 01:41:26;;;;;;;34.50;18.47;;;;;;;;;;5020198;28;20631;-79
2022/12/21 01:44:55;;;;;;;33.80;19.13;;;;;;;;;;5007336;28;20912;-79
2022/12/21 01:48:05;;;;;;;35.77;19.97;;;;;;;;;;5007741;28;20532;-79
2022/12/21 01:51:11;;;;;;;39.37;20.13;;;;;;;;;;4995950;28;20660;-78
2022/12/21 01:54:20;;;;;;;40.20;19.70;;;;;;;;;;5008227;28;20550;-79
2022/12/21 01:57:29;;;;;;;33.90;18.70;;;;;;;;;;4999487;28;20560;-79
2022/12/21 02:00:34;;;;;;;35.50;19.10;;;;;;;;;;5010299;28;20543;-79
2022/12/21 02:03:48;;;;;;;38.73;20.50;;;;;;;;;;4988431;28;20551;-79
2022/12/21 02:06:56;;;;;;;37.00;19.20;;;;;;;;;;5010860;28;20564;-79
2022/12/21 02:10:01;;;;;;;36.80;18.93;;;;;;;;;;4999411;28;20558;-79
2022/12/21 02:13:08;;;;;;;36.17;18.70;;;;;;;;;;4999082;28;20589;-79
2022/12/21 02:16:57;;;;;;;32.40;18.47;;;;;;;;;;5009174;28;20607;-79
2022/12/21 02:20:05;;;;;;;35.23;18.37;;;;;;;;;;5009113;28;20554;-79
2022/12/21 02:23:28;;;;;;;34.03;18.20;;;;;;;;;;5009317;28;20540;-79
2022/12/21 02:26:45;;;;;;;39.10;19.47;;;;;;;;;;5008694;28;20536;-79
2022/12/21 02:30:04;;;;;;;33.93;18.50;;;;;;;;;;5008614;28;20548;-79
2022/12/21 02:33:23;;;;;;;39.07;20.17;;;;;;;;;;5009076;28;20544;-76
2022/12/21 02:36:46;;;;;;;38.57;20.60;;;;;;;;;;5009115;28;20548;-78
2022/12/21 02:40:05;;;;;;;36.03;19.03;;;;;;;;;;4997582;28;20557;-78
2022/12/21 02:46:56;;;;;;;39.53;19.63;;;;;;;;;;5008056;28;20551;-78
2022/12/21 02:50:05;;;;;;;38.00;19.37;;;;;;;;;;4997660;28;21191;-78
2022/12/21 02:53:18;;;;;;;37.70;18.90;;;;;;;;;;4997125;28;20549;-79
2022/12/21 02:56:22;;;;;;;37.50;19.30;;;;;;;;;;5020074;28;20551;-79
2022/12/21 02:59:30;;;;;;;37.57;18.90;;;;;;;;;;4997173;28;20556;-78
2022/12/21 03:03:47;;;;;;;41.30;21.03;;;;;;;;;;4996210;28;20623;-79
2022/12/21 03:06:43;;;;;;;35.50;18.37;;;;;;;;;;4996811;28;20619;-77
2022/12/21 03:10:15;;;;;;;36.63;18.67;;;;;;;;;;5019396;28;20560;-79
2022/12/21 03:13:30;;;;;;;37.20;18.83;;;;;;;;;;5007512;28;20600;-78
2022/12/21 03:16:35;;;;;;;36.77;19.13;;;;;;;;;;5007422;28;20552;-79
2022/12/21 03:19:49;;;;;;;35.60;18.87;;;;;;;;;;5018496;28;20546;-77
2022/12/21 03:23:21;;;;;;;33.50;18.33;;;;;;;;;;5007039;28;20552;-78
2022/12/21 03:26:40;;;;;;;36.10;18.67;;;;;;;;;;5007765;28;20895;-78
2022/12/21 03:29:50;;;;;;;34.90;18.90;;;;;;;;;;4996605;28;20599;-79
2022/12/21 03:33:02;;;;;;;35.27;18.53;;;;;;;;;;5007243;28;20544;-78
2022/12/21 03:36:36;;;;;;;34.10;17.50;;;;;;;;;;4996507;28;20552;-78
2022/12/21 03:39:46;;;;;;;31.03;18.27;;;;;;;;;;4985376;28;20541;-78
2022/12/21 03:43:25;;;;;;;32.87;18.57;;;;;;;;;;4995681;28;20560;-78
2022/12/21 03:46:54;;;;;;;29.70;17.37;;;;;;;;;;5007762;28;20550;-78
2022/12/21 03:50:01;;;;;;;39.07;19.40;;;;;;;;;;4996344;28;20544;-78
2022/12/21 03:53:19;;;;;;;33.87;18.07;;;;;;;;;;5007784;28;20536;-78
2022/12/21 03:56:30;;;;;;;34.30;17.53;;;;;;;;;;4996485;28;20623;-77
2022/12/21 03:59:39;;;;;;;35.40;17.67;;;;;;;;;;4996806;28;21083;-77
2022/12/21 04:03:04;;;;;;;32.67;17.50;;;;;;;;;;4996781;28;20621;-78
2022/12/21 04:06:18;;;;;;;34.57;17.30;;;;;;;;;;5007764;28;20616;-78
2022/12/21 04:09:22;;;;;;;35.10;17.30;;;;;;;;;;5019193;28;20552;-77
2022/12/21 04:12:37;;;;;;;34.93;18.50;;;;;;;;;;5003671;28;20699;-77
2022/12/21 04:29:14;;;;;;;30.80;17.30;;;;;;;;;;4982447;28;20562;-77
2022/12/21 04:32:18;;;;;;;31.97;17.50;;;;;;;;;;4993797;28;20679;-77
2022/12/21 04:35:23;;;;;;;31.87;17.33;;;;;;;;;;4993598;28;20545;-77
2022/12/21 04:38:29;;;;;;;31.00;17.20;;;;;;;;;;4982624;28;20571;-76
2022/12/21 04:41:33;;;;;;;30.20;18.00;;;;;;;;;;4994256;28;20220;-76
2022/12/21 04:44:37;;;;;;;37.07;18.80;;;;;;;;;;4982439;28;20570;-76
2022/12/21 04:47:42;;;;;;;34.10;17.73;;;;;;;;;;4993712;28;20686;-76
2022/12/21 04:50:46;;;;;;;31.60;16.93;;;;;;;;;;4982257;28;20644;-76
2022/12/21 04:53:51;;;;;;;30.57;17.20;;;;;;;;;;4982449;28;20545;-76
2022/12/21 04:56:55;;;;;;;32.33;17.33;;;;;;;;;;4993514;28;20547;-76
2022/12/21 04:59:59;;;;;;;41.70;18.20;;;;;;;;;;4994197;28;20612;-76
2022/12/21 05:03:04;;;;;;;37.40;18.87;;;;;;;;;;4970799;28;20193;-76
2022/12/21 05:06:09;;;;;;;34.93;18.80;;;;;;;;;;4993195;28;20620;-77
2022/12/21 05:09:14;;;;;;;47.70;17.83;;;;;;;;;;4982289;28;20545;-77
2022/12/21 05:12:18;;;;;;;41.43;18.27;;;;;;;;;;4993869;28;20236;-76
2022/12/21 05:15:22;;;;;;;36.93;19.17;;;;;;;;;;4993407;28;20185;-76
2022/12/21 05:18:27;;;;;;;33.97;16.53;;;;;;;;;;4982235;28;20182;-77
2022/12/21 05:21:31;;;;;;;35.43;18.30;;;;;;;;;;4994035;28;20210;-77
2022/12/21 05:24:36;;;;;;;37.10;17.80;;;;;;;;;;4982241;28;20549;-76
2022/12/21 05:27:40;;;;;;;30.50;16.57;;;;;;;;;;4982062;28;21126;-76
2022/12/21 05:30:44;;;;;;;44.17;17.80;;;;;;;;;;4974298;28;20665;-76
2022/12/21 05:33:48;;;;;;;39.63;17.70;;;;;;;;;;4997338;28;20543;-76
2022/12/21 05:36:53;;;;;;;34.60;17.07;;;;;;;;;;4985635;28;21134;-76
2022/12/21 05:39:57;;;;;;;35.07;16.57;;;;;;;;;;4997186;28;20189;-76
2022/12/21 05:43:02;;;;;;;35.30;17.03;;;;;;;;;;4996828;28;20185;-75
2022/12/21 05:46:10;;;;;;;34.90;16.47;;;;;;;;;;4996604;28;20984;-77
2022/12/21 05:49:14;;;;;;;32.70;15.97;;;;;;;;;;4985402;28;20620;-76
2022/12/21 05:52:19;;;;;;;33.20;17.03;;;;;;;;;;4997402;28;20667;-76
2022/12/21 05:55:23;;;;;;;34.10;17.43;;;;;;;;;;4974776;28;20178;-76
2022/12/21 05:58:27;;;;;;;34.27;16.23;;;;;;;;;;4985278;28;20556;-77
2022/12/21 06:01:32;;;;;;;35.70;15.67;;;;;;;;;;4974049;28;20572;-77
2022/12/21 06:04:35;;;;;;;28.17;15.37;;;;;;;;;;4984925;28;20211;-77
2022/12/21 06:07:40;;;;;;;31.50;15.20;;;;;;;;;;4985228;28;20554;-77
2022/12/21 06:10:44;;;;;;;32.07;15.93;;;;;;;;;;4996979;28;20224;-76
2022/12/21 06:13:50;;;;;;;30.87;15.83;;;;;;;;;;4996193;28;20185;-77
2022/12/21 06:16:54;;;;;;;27.20;15.57;;;;;;;;;;4974059;28;20197;-77
2022/12/21 06:19:58;;;;;;;40.30;16.73;;;;;;;;;;4997045;28;20191;-77
2022/12/21 06:23:03;;;;;;;35.70;16.50;;;;;;;;;;4996625;28;20209;-77
2022/12/21 06:26:10;;;;;;;33.57;16.53;;;;;;;;;;4973912;28;20212;-77
2022/12/21 06:29:14;;;;;;;40.67;16.87;;;;;;;;;;4984679;28;20565;-77
2022/12/21 06:32:19;;;;;;;30.40;16.27;;;;;;;;;;4984371;28;20667;-77
2022/12/21 06:35:23;;;;;;;26.17;14.87;;;;;;;;;;4984964;28;20181;-77
2022/12/21 06:38:27;;;;;;;30.60;15.10;;;;;;;;;;4984832;28;20546;-77
2022/12/21 06:41:31;;;;;;;28.97;16.37;;;;;;;;;;4984245;28;20217;-77
2022/12/21 06:44:36;;;;;;;37.63;16.00;;;;;;;;;;4973662;28;20201;-77
2022/12/21 06:47:40;;;;;;;26.77;14.53;;;;;;;;;;4986348;28;21154;-78
2022/12/21 06:50:49;;;;;;;31.63;14.97;;;;;;;;;;4977583;28;20225;-79
2022/12/21 06:53:54;;;;;;;25.80;14.10;;;;;;;;;;4977868;28;20532;-78
2022/12/21 06:56:59;;;;;;;34.80;16.60;;;;;;;;;;4977371;28;20545;-78
2022/12/21 07:00:04;;;;;;;33.57;16.50;;;;;;;;;;4989096;28;20557;-80
2022/12/21 07:03:08;;;;;;;26.00;14.60;;;;;;;;;;4989082;28;20178;-78
2022/12/21 07:06:17;;;;;;;35.17;16.30;;;;;;;;;;4976828;28;20202;-79
2022/12/21 07:09:22;;;;;;;33.07;17.17;;;;;;;;;;4991655;28;20178;-77
2022/12/21 07:12:26;;;;;;;33.03;16.37;;;;;;;;;;4992310;28;20672;-78
2022/12/21 07:15:36;;;;;;;32.07;15.90;;;;;;;;;;4995242;28;20611;-79
2022/12/21 07:18:40;;;;;;;30.27;15.20;;;;;;;;;;4996154;28;20543;-79
2022/12/21 07:21:45;;;;;;;29.97;14.10;;;;;;;;;;4988940;28;20992;-79
2022/12/21 07:24:49;;;;;;;36.13;14.47;;;;;;;;;;4977577;28;20567;-79
2022/12/21 07:27:56;;;;;;;33.57;14.50;;;;;;;;;;4999696;28;20205;-79
2022/12/21 07:31:09;;;;;;;32.10;14.30;;;;;;;;;;4965829;28;20221;-80
2022/12/21 07:34:13;;;;;;;24.77;13.53;;;;;;;;;;4987666;28;20692;-80
2022/12/21 07:37:17;;;;;;;27.73;14.80;;;;;;;;;;4987931;28;20206;-80
2022/12/21 07:40:22;;;;;;;30.17;14.53;;;;;;;;;;4976492;28;20183;-79
2022/12/21 07:43:27;;;;;;;30.53;14.53;;;;;;;;;;4987329;28;20178;-80
2022/12/21 07:46:51;;;;;;;34.63;15.07;;;;;;;;;;4988334;28;20182;-78
2022/12/21 07:49:58;;;;;;;33.57;14.97;;;;;;;;;;4976312;28;20202;-79
2022/12/21 07:53:02;;;;;;;29.47;15.80;;;;;;;;;;4987668;28;20240;-80
2022/12/21 07:56:14;;;;;;;31.40;15.20;;;;;;;;;;4977083;28;20196;-79
2022/12/21 07:59:19;;;;;;;30.53;17.20;;;;;;;;;;4976766;28;20178;-79
2022/12/21 08:02:23;;;;;;;27.57;15.63;;;;;;;;;;4999665;28;20577;-79
2022/12/21 08:05:27;;;;;;;30.60;16.60;;;;;;;;;;4977781;28;20222;-79
2022/12/21 08:08:32;;;;;;;31.70;16.47;;;;;;;;;;4989110;28;20191;-79
2022/12/21 08:11:36;;;;;;;27.73;15.67;;;;;;;;;;4977306;28;20213;-79
2022/12/21 08:14:40;;;;;;;28.33;14.40;;;;;;;;;;4977411;28;20170;-78
2022/12/21 08:17:45;;;;;;;22.57;14.47;;;;;;;;;;4989760;28;20186;-79
2022/12/21 08:20:49;;;;;;;26.20;13.70;;;;;;;;;;4979695;28;20578;-80
2022/12/21 08:23:53;;;;;;;20.80;12.23;;;;;;;;;;4989712;28;20670;-79
2022/12/21 08:26:57;;;;;;;16.87;11.23;;;;;;;;;;4989480;28;20658;-80
2022/12/21 08:30:01;;;;;;;22.80;11.73;;;;;;;;;;5000351;28;20193;-79
2022/12/21 08:33:06;;;;;;;18.13;10.50;;;;;;;;;;5003088;28;20217;-80
2022/12/21 08:36:12;;;;;;;17.93;9.87;;;;;;;;;;5002314;28;20189;-80
2022/12/21 08:39:16;;;;;;;17.30;9.20;;;;;;;;;;5001475;28;20206;-80
2022/12/21 08:42:20;;;;;;;14.83;9.80;;;;;;;;;;4990657;28;20554;-80
2022/12/21 08:45:25;;;;;;;14.63;8.93;;;;;;;;;;5001671;28;20209;-82
2022/12/21 08:48:30;;;;;;;13.77;8.83;;;;;;;;;;4990103;28;20198;-81
2022/12/21 08:51:34;;;;;;;13.50;8.77;;;;;;;;;;4989477;28;20213;-80
2022/12/21 08:54:39;;;;;;;12.90;8.50;;;;;;;;;;4988585;28;20650;-79
2022/12/21 08:57:43;;;;;;;13.53;8.43;;;;;;;;;;5000981;28;20618;-80
2022/12/21 09:00:47;;;;;;;14.00;7.83;;;;;;;;;;4976915;28;20550;-80
2022/12/21 09:03:51;;;;;;;16.97;7.80;;;;;;;;;;4987497;28;20630;-80
2022/12/21 09:06:55;;;;;;;13.77;7.00;;;;;;;;;;4976687;28;20178;-80
2022/12/21 09:09:59;;;;;;;10.97;7.27;;;;;;;;;;4987710;28;20182;-81
2022/12/21 09:13:04;;;;;;;13.33;8.90;;;;;;;;;;4975601;28;20210;-81
2022/12/21 09:16:13;;;;;;;11.17;7.77;;;;;;;;;;4976060;28;20182;-81
2022/12/21 09:19:17;;;;;;;12.63;6.63;;;;;;;;;;4987129;28;20182;-81
2022/12/21 09:22:23;;;;;;;9.40;6.43;;;;;;;;;;4987307;28;20218;-82
2022/12/21 09:25:28;;;;;;;8.77;6.33;;;;;;;;;;4976462;28;20183;-82
2022/12/21 09:28:32;;;;;;;9.20;5.93;;;;;;;;;;4998954;28;20186;-81
2022/12/21 09:31:36;;;;;;;7.47;5.10;;;;;;;;;;4999300;28;20559;-81
2022/12/21 09:34:40;;;;;;;10.00;5.17;;;;;;;;;;4987151;28;20186;-81
2022/12/21 09:37:44;;;;;;;8.10;5.53;;;;;;;;;;4998275;28;20190;-82
2022/12/21 09:40:50;;;;;;;7.20;5.27;;;;;;;;;;4975081;28;20214;-81
2022/12/21 09:44:22;;;;;;;8.63;5.50;;;;;;;;;;4986394;28;20175;-80
2022/12/21 09:47:40;;;;;;;12.83;10.70;;;;;;;;;;4986268;28;20190;-80
2022/12/21 09:50:53;;;;;;;10.57;6.90;;;;;;;;;;4974403;28;20222;-81
2022/12/21 09:54:04;;;;;;;9.33;6.27;;;;;;;;;;4975876;28;20550;-80
2022/12/21 09:57:13;;;;;;;7.80;5.57;;;;;;;;;;4992426;28;20182;-79
2022/12/21 10:00:21;;;;;;;8.63;5.43;;;;;;;;;;4981033;28;20191;-79
2022/12/21 10:03:46;;;;;;;10.60;5.73;;;;;;;;;;4977865;28;20174;-79
2022/12/21 10:07:21;;;;;;;10.07;6.20;;;;;;;;;;4974792;28;20179;-80
2022/12/21 10:10:39;;;;;;;8.70;6.10;;;;;;;;;;4997490;28;20187;-80
2022/12/21 10:13:55;;;;;;;12.00;5.70;;;;;;;;;;4985393;28;20217;-79
2022/12/21 10:17:30;;;;;;;9.20;6.00;;;;;;;;;;4987961;28;20626;-78
2022/12/21 10:20:40;;;;;;;5.93;4.60;;;;;;;;;;4990186;28;20638;-77
2022/12/21 10:23:48;;;;;;;8.30;4.80;;;;;;;;;;4978172;28;20175;-78
2022/12/21 10:26:57;;;;;;;6.13;4.57;;;;;;;;;;4977352;28;20182;-78
2022/12/21 10:30:02;;;;;;;9.23;5.40;;;;;;;;;;4998437;28;20190;-78
2022/12/21 10:33:11;;;;;;;9.80;5.50;;;;;;;;;;4998906;28;20670;-78
2022/12/21 10:36:19;;;;;;;9.00;5.20;;;;;;;;;;4987729;28;20190;-78
2022/12/21 10:39:24;;;;;;;8.10;5.17;;;;;;;;;;5000122;28;20634;-78
2022/12/21 10:42:43;;;;;;;9.50;5.67;;;;;;;;;;4987962;28;20218;-78
2022/12/21 10:45:48;;;;;;;9.03;5.40;;;;;;;;;;4989313;28;20179;-77
2022/12/21 10:48:58;;;;;;;6.47;4.77;;;;;;;;;;5000535;28;20206;-78
2022/12/21 10:52:32;;;;;;;7.93;5.03;;;;;;;;;;4989075;28;20214;-77
2022/12/21 10:55:36;;;;;;;5.80;4.47;;;;;;;;;;4988487;28;20182;-78
2022/12/21 10:58:50;;;;;;;6.47;4.60;;;;;;;;;;5000001;28;20185;-78
2022/12/21 11:01:55;;;;;;;6.67;4.67;;;;;;;;;;4989317;28;20222;-78
2022/12/21 11:04:59;;;;;;;5.73;4.30;;;;;;;;;;4989967;28;20202;-78
2022/12/21 11:08:28;;;;;;;6.33;3.80;;;;;;;;;;4989907;28;20174;-78
2022/12/21 11:11:35;;;;;;;6.73;4.50;;;;;;;;;;4988420;28;20214;-78
2022/12/21 11:14:40;;;;;;;8.00;4.03;;;;;;;;;;4987658;28;20210;-78
2022/12/21 11:17:45;;;;;;;5.57;4.00;;;;;;;;;;4987642;28;20634;-78
2022/12/21 11:20:49;;;;;;;5.20;4.00;;;;;;;;;;4989701;28;20214;-78
2022/12/21 11:23:56;;;;;;;9.30;4.20;;;;;;;;;;4989320;28;20174;-78
2022/12/21 11:27:12;;;;;;;6.53;4.27;;;;;;;;;;4986160;28;20186;-78
2022/12/21 11:30:22;;;;;;;7.60;4.93;;;;;;;;;;4974625;28;20183;-78
2022/12/21 11:33:27;;;;;;;9.23;4.63;;;;;;;;;;4996735;28;20214;-78
2022/12/21 11:36:31;;;;;;;6.27;4.93;;;;;;;;;;4984116;28;20665;-77
2022/12/21 11:39:39;;;;;;;6.63;4.87;;;;;;;;;;4983984;28;20181;-77
2022/12/21 11:43:02;;;;;;;6.47;4.70;;;;;;;;;;4972407;28;20225;-77
2022/12/21 11:46:24;;;;;;;6.50;4.57;;;;;;;;;;4983597;28;20186;-77
2022/12/21 11:50:02;;;;;;;8.50;4.60;;;;;;;;;;4994512;28;20543;-77
2022/12/21 11:53:13;;;;;;;6.93;5.00;;;;;;;;;;4994558;28;20198;-77
2022/12/21 11:56:32;;;;;;;7.37;5.40;;;;;;;;;;4983428;28;20178;-77
2022/12/21 12:00:01;;;;;;;8.10;5.53;;;;;;;;;;4995607;28;20187;-77
2022/12/21 12:03:14;;;;;;;10.13;4.60;;;;;;;;;;4983289;28;20178;-77
2022/12/21 12:06:40;;;;;;;11.13;7.23;;;;;;;;;;4972792;28;20209;-77
2022/12/21 12:09:53;;;;;;;17.10;11.77;;;;;;;;;;4983374;28;20182;-77
2022/12/21 12:13:19;;;;;;;13.50;8.63;;;;;;;;;;4994893;28;20661;-77
2022/12/21 12:16:39;;;;;;;10.87;7.70;;;;;;;;;;4994435;28;20187;-76
2022/12/21 12:20:28;;;;;;;9.33;7.57;;;;;;;;;;4993965;28;20182;-77
2022/12/21 12:23:49;;;;;;;13.07;9.50;;;;;;;;;;4972572;28;20183;-77
2022/12/21 12:27:35;;;;;;;15.03;10.23;;;;;;;;;;4983380;28;20186;-77
2022/12/21 12:30:52;;;;;;;15.20;10.93;;;;;;;;;;4978200;28;20174;-76
2022/12/21 12:34:30;;;;;;;14.30;9.73;;;;;;;;;;4994882;28;20221;-77
2022/12/21 12:37:56;;;;;;;13.83;10.27;;;;;;;;;;4983668;28;20178;-77
2022/12/21 12:41:15;;;;;;;12.40;10.27;;;;;;;;;;4983637;28;20703;-77
2022/12/21 12:44:29;;;;;;;16.93;11.00;;;;;;;;;;4984006;28;20187;-78
2022/12/21 12:47:44;;;;;;;15.63;10.97;;;;;;;;;;4995173;28;20189;-77
2022/12/21 12:51:11;;;;;;;16.30;10.07;;;;;;;;;;4994540;28;20235;-77
2022/12/21 12:54:39;;;;;;;12.93;9.50;;;;;;;;;;4993576;28;20217;-77
2022/12/21 12:57:56;;;;;;;18.53;9.93;;;;;;;;;;5000037;28;20182;-77
2022/12/21 13:01:31;;;;;;;398.63;23.67;;;;;;;;;;4982486;28;20217;-77
2022/12/21 13:04:54;;;;;;;21.27;13.53;;;;;;;;;;4994989;28;20202;-77
2022/12/21 13:08:27;;;;;;;19.30;12.70;;;;;;;;;;4993563;28;20194;-77
2022/12/21 13:11:42;;;;;;;20.03;13.87;;;;;;;;;;4993206;28;20220;-77
2022/12/21 13:14:58;;;;;;;24.30;13.60;;;;;;;;;;4982225;28;20585;-77
2022/12/21 13:18:36;;;;;;;16.77;11.50;;;;;;;;;;4982599;28;20187;-77
2022/12/21 13:21:42;;;;;;;13.90;10.63;;;;;;;;;;4985399;28;20225;-77
2022/12/21 13:25:01;;;;;;;15.27;10.43;;;;;;;;;;4982271;28;20685;-77
2022/12/21 13:28:15;;;;;;;12.50;9.30;;;;;;;;;;4993335;28;20195;-76
2022/12/21 13:31:26;;;;;;;12.00;8.10;;;;;;;;;;4982004;28;20673;-76
2022/12/21 13:34:40;;;;;;;10.23;7.30;;;;;;;;;;4993697;28;20218;-76
2022/12/21 13:37:46;;;;;;;22.40;17.17;;;;;;;;;;4982064;28;20182;-76
2022/12/21 13:41:00;;;;;;;13.17;10.43;;;;;;;;;;4993086;28;20732;-76
2022/12/21 13:44:30;;;;;;;14.50;10.90;;;;;;;;;;4992788;28;20178;-76
2022/12/21 13:47:36;;;;;;;11.93;8.87;;;;;;;;;;4981847;28;20191;-75
2022/12/21 13:50:54;;;;;;;10.03;7.23;;;;;;;;;;4994514;28;20183;-76
2022/12/21 13:54:16;;;;;;;9.40;6.73;;;;;;;;;;4985209;28;20218;-76
2022/12/21 13:57:36;;;;;;;7.70;6.27;;;;;;;;;;4996635;28;20634;-76
2022/12/21 14:01:04;;;;;;;18.60;7.33;;;;;;;;;;4985536;28;20182;-76
2022/12/21 14:04:42;;;;;;;9.17;7.30;;;;;;;;;;4985450;28;20178;-76
2022/12/21 14:08:08;;;;;;;10.57;8.23;;;;;;;;;;4973995;28;20170;-76
2022/12/21 14:11:30;;;;;;;17.10;12.20;;;;;;;;;;4985273;28;20210;-76
2022/12/21 14:14:56;;;;;;;24.50;17.77;;;;;;;;;;4997229;28;20210;-76
2022/12/21 14:18:08;;;;;;;22.47;17.33;;;;;;;;;;4996753;28;20194;-76
2022/12/21 14:21:30;;;;;;;17.60;14.13;;;;;;;;;;4996146;28;20220;-76
2022/12/21 14:24:34;;;;;;;16.17;11.60;;;;;;;;;;4996731;28;20194;-76
2022/12/21 14:27:38;;;;;;;12.40;8.40;;;;;;;;;;4996850;28;20262;-77
2022/12/21 14:30:53;;;;;;;13.70;7.27;;;;;;;;;;4995816;28;20182;-77
2022/12/21 14:33:58;;;;;;;16.38;13.48;;;;;;;;;;4995344;28;21010;-76
2022/12/21 14:37:08;;;;;;;15.07;9.40;;;;;;;;;;4984496;28;20195;-77
2022/12/21 14:40:13;;;;;;;14.30;11.65;;;;;;;;;;4995335;28;20686;-76
2022/12/21 14:43:17;;;;;;;13.23;8.17;;;;;;;;;;4995539;28;20210;-76
2022/12/21 14:46:26;;;;;;;10.60;7.13;;;;;;;;;;4996099;28;20178;-76
2022/12/21 14:49:41;;;;;;;11.13;6.50;;;;;;;;;;4984528;28;20182;-75
2022/12/21 14:53:11;;;;;;;10.13;6.37;;;;;;;;;;4996684;28;20214;-75
2022/12/21 14:56:16;;;;;;;16.27;7.07;;;;;;;;;;4996540;28;20174;-75
2022/12/21 14:59:21;;;;;;;13.33;8.20;;;;;;;;;;4996760;28;20186;-75
2022/12/21 15:02:48;;;;;;;14.53;8.07;;;;;;;;;;4995256;28;20218;-75
2022/12/21 15:06:03;;;;;;;10.67;7.73;;;;;;;;;;4995236;28;20205;-75
2022/12/21 15:09:20;;;;;;;8.60;7.37;;;;;;;;;;4984882;28;20194;-75
2022/12/21 15:12:38;;;;;;;8.23;6.27;;;;;;;;;;4996160;28;20557;-75
2022/12/21 15:15:44;;;;;;;9.47;6.73;;;;;;;;;;4996362;28;20206;-75
2022/12/21 15:18:56;;;;;;;11.77;8.90;;;;;;;;;;4996044;28;20186;-75
2022/12/21 15:22:31;;;;;;;18.17;9.03;;;;;;;;;;4983834;28;20218;-75
2022/12/21 15:25:35;;;;;;;15.87;7.93;;;;;;;;;;4996142;28;20174;-76
2022/12/21 15:28:44;;;;;;;10.77;7.47;;;;;;;;;;4995650;28;20543;-76
2022/12/21 15:31:50;;;;;;;11.00;5.87;;;;;;;;;;4995978;28;20230;-75
2022/12/21 15:35:04;;;;;;;9.20;5.70;;;;;;;;;;4995891;28;20214;-75
2022/12/21 15:38:26;;;;;;;9.83;5.50;;;;;;;;;;4995323;28;20190;-75
2022/12/21 15:41:55;;;;;;;11.07;5.23;;;;;;;;;;4995981;28;20214;-75
2022/12/21 15:45:05;;;;;;;19.83;11.80;;;;;;;;;;4996057;28;20186;-75
2022/12/21 15:48:41;;;;;;;29.63;20.97;;;;;;;;;;4996349;28;20210;-76
2022/12/21 15:51:48;;;;;;;16.30;10.80;;;;;;;;;;4986875;28;20229;-76
2022/12/21 15:54:55;;;;;;;9.77;8.07;;;;;;;;;;4994720;28;20693;-75
2022/12/21 15:58:11;;;;;;;9.43;6.90;;;;;;;;;;4995242;28;20178;-75
2022/12/21 16:01:24;;;;;;;8.60;6.47;;;;;;;;;;4994396;28;20218;-75
2022/12/21 16:04:28;;;;;;;9.10;5.63;;;;;;;;;;4994906;28;20198;-76
2022/12/21 16:07:32;;;;;;;9.20;6.30;;;;;;;;;;4995127;28;20174;-75
2022/12/21 16:10:38;;;;;;;9.00;5.63;;;;;;;;;;4995176;28;20182;-75
2022/12/21 16:13:42;;;;;;;7.57;5.37;;;;;;;;;;4983385;28;20182;-75
2022/12/21 16:16:50;;;;;;;10.10;6.00;;;;;;;;;;4994546;28;20182;-75
2022/12/21 16:19:57;;;;;;;23.97;5.90;;;;;;;;;;4995159;28;20522;-75
2022/12/21 16:23:02;;;;;;;103.70;8.90;;;;;;;;;;4983562;28;20186;-75
2022/12/21 16:26:15;;;;;;;8.20;5.00;;;;;;;;;;4983514;28;20174;-75
2022/12/21 16:29:22;;;;;;;37.57;5.53;;;;;;;;;;4994642;28;20182;-75
2022/12/21 16:32:27;;;;;;;11.90;4.70;;;;;;;;;;4994841;28;20217;-75
2022/12/21 16:35:32;;;;;;;8.03;4.43;;;;;;;;;;4994514;28;20201;-76
2022/12/21 16:38:36;;;;;;;10.50;5.40;;;;;;;;;;4976140;28;20174;-76
2022/12/21 16:41:41;;;;;;;15.80;5.23;;;;;;;;;;4997468;28;20214;-75
2022/12/21 16:44:46;;;;;;;8.37;5.23;;;;;;;;;;4986680;28;20182;-74
2022/12/21 16:48:16;;;;;;;6.20;4.03;;;;;;;;;;4986416;28;20186;-74
2022/12/21 16:51:35;;;;;;;6.63;3.83;;;;;;;;;;4998543;28;20214;-74
2022/12/21 16:54:39;;;;;;;6.50;4.50;;;;;;;;;;4986200;28;20531;-74
2022/12/21 16:57:45;;;;;;;5.93;4.23;;;;;;;;;;4986025;28;20178;-75
2022/12/21 17:00:50;;;;;;;47.30;5.70;;;;;;;;;;5010520;28;20221;-75
2022/12/21 17:04:00;;;;;;;9.00;4.43;;;;;;;;;;5011348;28;20186;-75
2022/12/21 17:07:18;;;;;;;6.53;4.37;;;;;;;;;;5020910;28;20182;-75
2022/12/21 17:10:24;;;;;;;6.40;4.33;;;;;;;;;;4994757;28;20189;-74
2022/12/21 17:13:30;;;;;;;4.13;3.37;;;;;;;;;;5004096;28;20193;-75
2022/12/21 17:16:44;;;;;;;358.40;12.60;;;;;;;;;;5015805;28;20213;-75
2022/12/21 17:20:05;;;;;;;6.47;3.43;;;;;;;;;;4992201;28;20251;-75
2022/12/21 17:23:10;;;;;;;15.37;4.07;;;;;;;;;;5003152;28;20182;-74
2022/12/21 17:26:37;;;;;;;4.93;3.47;;;;;;;;;;5007822;28;20173;-75
2022/12/21 17:29:41;;;;;;;6.23;3.50;;;;;;;;;;5008018;28;20185;-74
2022/12/21 17:32:47;;;;;;;3.47;3.07;;;;;;;;;;4998740;28;20220;-74
2022/12/21 17:35:53;;;;;;;6.13;3.40;;;;;;;;;;5021248;28;20217;-74
2022/12/21 17:39:18;;;;;;;4.37;3.43;;;;;;;;;;5009021;28;20182;-75
2022/12/21 17:42:22;;;;;;;6.37;4.17;;;;;;;;;;5020529;28;20217;-75
2022/12/21 17:45:26;;;;;;;6.60;5.00;;;;;;;;;;5021995;28;20625;-75
2022/12/21 17:48:30;;;;;;;39.60;5.27;;;;;;;;;;4997530;28;20517;-74
2022/12/21 17:51:34;;;;;;;34.97;5.77;;;;;;;;;;5020128;28;20208;-75
2022/12/21 17:54:38;;;;;;;5.77;4.13;;;;;;;;;;5008379;28;20181;-74
2022/12/21 17:57:43;;;;;;;4.27;3.80;;;;;;;;;;5019850;28;20174;-75
2022/12/21 18:00:50;;;;;;;6.30;4.60;;;;;;;;;;5007920;28;20685;-74
2022/12/21 18:03:56;;;;;;;5.60;4.40;;;;;;;;;;5020111;28;20526;-75
2022/12/21 18:07:00;;;;;;;9.47;5.03;;;;;;;;;;5019729;28;20205;-75
2022/12/21 18:10:23;;;;;;;8.00;5.10;;;;;;;;;;5007777;28;20185;-75
2022/12/21 18:13:27;;;;;;;12.23;5.50;;;;;;;;;;5019677;28;20558;-75
2022/12/21 18:16:36;;;;;;;11.50;6.20;;;;;;;;;;5020050;28;20664;-75
2022/12/21 18:19:41;;;;;;;8.30;5.00;;;;;;;;;;5019626;28;20628;-75
2022/12/21 18:22:46;;;;;;;9.57;6.23;;;;;;;;;;5030230;28;20212;-75
2022/12/21 18:25:52;;;;;;;10.90;6.60;;;;;;;;;;5007601;28;20182;-75
2022/12/21 18:28:56;;;;;;;16.63;8.67;;;;;;;;;;5020053;28;20186;-77
2022/12/21 18:32:01;;;;;;;15.27;11.47;;;;;;;;;;5019519;28;20676;-76
2022/12/21 18:35:19;;;;;;;14.07;10.13;;;;;;;;;;5007303;28;20218;-75
2022/12/21 18:38:33;;;;;;;21.23;12.63;;;;;;;;;;4992417;28;20549;-75
2022/12/21 18:41:37;;;;;;;18.20;10.17;;;;;;;;;;5016369;28;20228;-75
2022/12/21 18:44:41;;;;;;;35.00;9.90;;;;;;;;;;5016322;28;20194;-75
2022/12/21 18:47:46;;;;;;;15.57;10.37;;;;;;;;;;5016419;28;20177;-75
2022/12/21 18:50:50;;;;;;;18.37;11.37;;;;;;;;;;5016432;28;20217;-75
2022/12/21 18:53:54;;;;;;;12.87;7.33;;;;;;;;;;5004721;28;20184;-75
2022/12/21 18:56:59;;;;;;;8.87;6.60;;;;;;;;;;5026768;28;20209;-75
2022/12/21 19:00:03;;;;;;;10.33;6.63;;;;;;;;;;5016159;28;20514;-75